createdAt,value
2019-04-30T00:00:06.242Z,99.99
2019-04-30T00:01:07.481Z,99.99
2019-04-30T00:02:05.794Z,99.99
2019-04-30T00:03:06.828Z,99.98
2019-04-30T00:04:06.107Z,99.89
2019-04-30T00:05:09.933Z,99.32
2019-04-30T00:06:07.509Z,99.99
2019-04-30T00:07:10.179Z,99.32
2019-04-30T00:08:06.858Z,99.99
2019-04-30T00:09:09.821Z,99.98
2019-04-30T00:10:07.225Z,99.41
2019-04-30T00:11:10.734Z,99.13
2019-04-30T00:12:07.601Z,99.13
2019-04-30T00:13:10.401Z,99.03
2019-04-30T00:14:07.969Z,99.32
2019-04-30T00:15:10.981Z,99.22
2019-04-30T00:16:08.348Z,99.32
2019-04-30T00:17:10.675Z,98.55
2019-04-30T00:18:08.719Z,99.13
2019-04-30T00:19:10.550Z,98.94
2019-04-30T00:20:09.082Z,99.32
2019-04-30T00:21:09.987Z,99.69
2019-04-30T00:22:09.449Z,99.99
2019-04-30T00:23:09.650Z,99.99
2019-04-30T00:24:10.394Z,99.99
2019-04-30T00:25:10.031Z,99.22
2019-04-30T00:26:10.592Z,98.94
2019-04-30T00:27:10.402Z,99.51
2019-04-30T00:28:10.587Z,99.13
2019-04-30T00:29:10.773Z,99.32
2019-04-30T00:30:10.980Z,99.79
2019-04-30T00:31:11.145Z,99.51
2019-04-30T00:32:11.332Z,99.03
2019-04-30T00:33:15.246Z,98.94
2019-04-30T00:34:11.702Z,99.03
2019-04-30T00:35:15.507Z,98.36
2019-04-30T00:36:12.076Z,99.32
2019-04-30T00:37:13.960Z,99.32
2019-04-30T00:38:12.446Z,98.94
2019-04-30T00:39:13.228Z,99.27
2019-04-30T00:40:12.818Z,99.69
2019-04-30T00:41:13.003Z,99.65
2019-04-30T00:42:18.714Z,99.65
2019-04-30T00:43:13.385Z,99.65
2019-04-30T00:44:15.156Z,99.27
2019-04-30T00:45:15.325Z,99.99
2019-04-30T00:46:17.315Z,99.99
2019-04-30T00:47:15.424Z,99.99
2019-04-30T00:48:19.401Z,99.99
2019-04-30T00:49:18.563Z,99.99
2019-04-30T00:50:14.998Z,99.99
2019-04-30T00:51:20.969Z,99.99
2019-04-30T00:52:15.456Z,99.99
2019-04-30T00:53:16.659Z,99.99
2019-04-30T00:54:17.689Z,99.99
2019-04-30T00:55:15.600Z,99.99
2019-04-30T00:56:19.662Z,99.99
2019-04-30T00:57:15.970Z,99.99
2019-04-30T00:58:19.692Z,99.99
2019-04-30T00:59:16.349Z,99.99
2019-04-30T01:00:19.631Z,99.99
2019-04-30T01:01:16.717Z,99.99
2019-04-30T01:02:19.969Z,99.99
2019-04-30T01:03:17.094Z,99.99
2019-04-30T01:04:19.340Z,99.99
2019-04-30T01:05:17.470Z,99.99
2019-04-30T01:06:24.650Z,99.99
2019-04-30T01:07:17.851Z,99.99
2019-04-30T01:08:21.203Z,99.99
2019-04-30T01:09:18.204Z,99.99
2019-04-30T01:10:19.655Z,99.99
2019-04-30T01:11:18.598Z,99.99
2019-04-30T01:12:25.306Z,99.99
2019-04-30T01:13:19.309Z,99.99
2019-04-30T01:14:23.135Z,99.99
2019-04-30T01:15:19.336Z,99.99
2019-04-30T01:16:19.623Z,99.99
2019-04-30T01:17:19.714Z,99.99
2019-04-30T01:18:23.618Z,99.99
2019-04-30T01:19:29.132Z,99.99
2019-04-30T01:20:24.019Z,99.99
2019-04-30T01:21:20.457Z,99.99
2019-04-30T01:22:27.871Z,99.99
2019-04-30T01:23:20.823Z,99.99
2019-04-30T01:24:23.513Z,99.99
2019-04-30T01:25:21.196Z,99.99
2019-04-30T01:26:22.860Z,99.99
2019-04-30T01:27:21.566Z,99.99
2019-04-30T01:28:24.193Z,99.99
2019-04-30T01:29:21.942Z,99.99
2019-04-30T01:30:22.838Z,99.99
2019-04-30T01:31:22.312Z,99.99
2019-04-30T01:32:22.494Z,99.99
2019-04-30T01:33:22.678Z,99.99
2019-04-30T01:34:22.871Z,99.99
2019-04-30T01:35:23.776Z,99.99
2019-04-30T01:36:23.242Z,99.99
2019-04-30T01:37:28.311Z,99.99
2019-04-30T01:38:23.610Z,99.99
2019-04-30T01:39:27.907Z,99.99
2019-04-30T01:40:23.982Z,99.99
2019-04-30T01:41:27.552Z,99.99
2019-04-30T01:42:24.346Z,99.99
2019-04-30T01:43:31.741Z,99.99
2019-04-30T01:44:24.713Z,99.99
2019-04-30T01:45:28.225Z,99.99
2019-04-30T01:46:25.083Z,99.99
2019-04-30T01:47:27.884Z,99.99
2019-04-30T01:48:25.448Z,99.99
2019-04-30T01:49:26.741Z,99.99
2019-04-30T01:50:25.815Z,99.99
2019-04-30T01:51:26.002Z,99.99
2019-04-30T01:52:29.252Z,99.99
2019-04-30T01:53:26.365Z,99.99
2019-04-30T01:54:26.555Z,99.99
2019-04-30T01:55:26.737Z,99.99
2019-04-30T01:56:28.829Z,99.99
2019-04-30T01:57:29.142Z,99.99
2019-04-30T01:58:29.966Z,99.99
2019-04-30T01:59:29.096Z,99.99
2019-04-30T02:00:29.313Z,99.99
2019-04-30T02:01:28.611Z,99.99
2019-04-30T02:02:28.643Z,99.99
2019-04-30T02:03:29.169Z,99.99
2019-04-30T02:04:28.992Z,99.99
2019-04-30T02:05:28.831Z,99.99
2019-04-30T02:06:29.462Z,99.99
2019-04-30T02:07:28.952Z,99.99
2019-04-30T02:08:29.511Z,99.99
2019-04-30T02:09:29.319Z,99.99
2019-04-30T02:10:29.506Z,99.99
2019-04-30T02:11:29.686Z,99.99
2019-04-30T02:12:29.873Z,99.99
2019-04-30T02:13:34.341Z,99.99
2019-04-30T02:14:30.246Z,99.99
2019-04-30T02:15:30.429Z,99.99
2019-04-30T02:16:30.619Z,99.99
2019-04-30T02:17:30.792Z,99.99
2019-04-30T02:18:30.975Z,99.99
2019-04-30T02:19:31.288Z,99.99
2019-04-30T02:20:31.345Z,99.99
2019-04-30T02:21:33.360Z,99.99
2019-04-30T02:22:31.713Z,99.99
2019-04-30T02:23:31.900Z,99.99
2019-04-30T02:24:32.107Z,99.99
2019-04-30T02:25:32.272Z,99.99
2019-04-30T02:26:32.456Z,99.99
2019-04-30T02:27:32.642Z,99.99
2019-04-30T02:28:32.836Z,99.99
2019-04-30T02:29:33.015Z,99.99
2019-04-30T02:30:33.204Z,99.99
2019-04-30T02:31:33.390Z,99.99
2019-04-30T02:32:33.568Z,99.99
2019-04-30T02:33:33.759Z,99.99
2019-04-30T02:34:33.937Z,99.99
2019-04-30T02:35:34.129Z,99.99
2019-04-30T02:36:34.313Z,99.99
2019-04-30T02:37:34.492Z,99.99
2019-04-30T02:38:34.675Z,99.99
2019-04-30T02:39:34.865Z,99.99
2019-04-30T02:40:35.051Z,99.99
2019-04-30T02:41:35.229Z,99.99
2019-04-30T02:42:35.419Z,99.99
2019-04-30T02:43:35.604Z,99.99
2019-04-30T02:44:35.791Z,99.99
2019-04-30T02:45:35.986Z,99.99
2019-04-30T02:46:36.166Z,99.99
2019-04-30T02:47:36.342Z,99.99
2019-04-30T02:48:39.382Z,99.99
2019-04-30T02:49:36.711Z,99.99
2019-04-30T02:50:39.208Z,99.99
2019-04-30T02:51:39.772Z,99.99
2019-04-30T02:52:37.258Z,99.99
2019-04-30T02:53:40.127Z,99.99
2019-04-30T02:54:39.656Z,99.99
2019-04-30T02:55:40.324Z,99.99
2019-04-30T02:56:40.017Z,99.99
2019-04-30T02:57:40.150Z,99.99
2019-04-30T02:58:40.934Z,99.99
2019-04-30T02:59:40.298Z,99.99
2019-04-30T03:00:39.351Z,99.99
2019-04-30T03:01:40.317Z,99.99
2019-04-30T03:02:39.555Z,99.99
2019-04-30T03:03:42.493Z,99.99
2019-04-30T03:04:39.654Z,99.99
2019-04-30T03:05:39.649Z,99.99
2019-04-30T03:06:40.465Z,99.99
2019-04-30T03:07:40.722Z,99.99
2019-04-30T03:08:40.502Z,99.99
2019-04-30T03:09:40.389Z,99.99
2019-04-30T03:10:40.596Z,99.99
2019-04-30T03:11:41.146Z,99.99
2019-04-30T03:12:40.960Z,99.99
2019-04-30T03:13:42.858Z,99.99
2019-04-30T03:14:41.313Z,99.99
2019-04-30T03:15:41.505Z,99.99
2019-04-30T03:16:41.691Z,99.99
2019-04-30T03:17:41.876Z,99.99
2019-04-30T03:18:42.055Z,99.99
2019-04-30T03:19:42.237Z,99.99
2019-04-30T03:20:42.417Z,99.99
2019-04-30T03:21:42.608Z,99.99
2019-04-30T03:22:42.795Z,99.99
2019-04-30T03:23:42.973Z,99.99
2019-04-30T03:24:43.221Z,99.99
2019-04-30T03:25:43.347Z,99.99
2019-04-30T03:26:43.538Z,99.99
2019-04-30T03:27:43.719Z,99.99
2019-04-30T03:28:43.905Z,99.99
2019-04-30T03:29:44.092Z,99.99
2019-04-30T03:30:44.278Z,99.99
2019-04-30T03:31:45.589Z,99.99
2019-04-30T03:32:50.787Z,99.99
2019-04-30T03:33:44.815Z,99.99
2019-04-30T03:34:45.012Z,99.99
2019-04-30T03:35:47.808Z,99.99
2019-04-30T03:36:45.367Z,99.99
2019-04-30T03:37:45.545Z,99.99
2019-04-30T03:38:45.742Z,99.99
2019-04-30T03:39:45.926Z,99.99
2019-04-30T03:40:46.108Z,99.99
2019-04-30T03:41:46.291Z,99.99
2019-04-30T03:42:49.288Z,99.99
2019-04-30T03:43:46.672Z,99.99
2019-04-30T03:44:49.423Z,99.99
2019-04-30T03:45:49.727Z,99.99
2019-04-30T03:46:49.806Z,99.99
2019-04-30T03:47:50.233Z,99.99
2019-04-30T03:48:50.185Z,99.99
2019-04-30T03:49:49.934Z,99.99
2019-04-30T03:50:53.406Z,99.99
2019-04-30T03:51:49.890Z,99.99
2019-04-30T03:52:50.403Z,99.99
2019-04-30T03:53:50.102Z,99.99
2019-04-30T03:54:49.429Z,99.99
2019-04-30T03:55:50.532Z,99.99
2019-04-30T03:56:50.251Z,99.99
2019-04-30T03:57:51.978Z,99.99
2019-04-30T03:58:50.323Z,99.99
2019-04-30T03:59:50.072Z,99.99
2019-04-30T04:00:50.303Z,99.99
2019-04-30T04:01:50.038Z,99.99
2019-04-30T04:02:50.360Z,99.99
2019-04-30T04:03:50.336Z,99.99
2019-04-30T04:04:52.654Z,99.99
2019-04-30T04:05:50.710Z,99.99
2019-04-30T04:06:50.897Z,99.99
2019-04-30T04:07:53.143Z,99.99
2019-04-30T04:08:51.267Z,99.99
2019-04-30T04:09:51.448Z,99.99
2019-04-30T04:10:53.008Z,99.99
2019-04-30T04:11:51.823Z,99.99
2019-04-30T04:12:52.003Z,99.99
2019-04-30T04:13:52.195Z,99.99
2019-04-30T04:14:52.376Z,99.99
2019-04-30T04:15:52.578Z,99.99
2019-04-30T04:16:52.737Z,99.99
2019-04-30T04:17:52.926Z,99.99
2019-04-30T04:18:53.112Z,99.99
2019-04-30T04:19:53.295Z,99.99
2019-04-30T04:21:07.455Z,99.99
2019-04-30T04:21:53.661Z,99.99
2019-04-30T04:22:53.843Z,99.99
2019-04-30T04:23:54.028Z,99.99
2019-04-30T04:24:54.226Z,99.99
2019-04-30T04:25:54.398Z,99.99
2019-04-30T04:26:54.585Z,99.99
2019-04-30T04:27:54.767Z,99.99
2019-04-30T04:28:54.951Z,99.99
2019-04-30T04:29:55.123Z,99.99
2019-04-30T04:30:55.323Z,99.99
2019-04-30T04:31:55.503Z,99.99
2019-04-30T04:32:55.699Z,99.99
2019-04-30T04:33:55.881Z,99.99
2019-04-30T04:34:56.077Z,99.88
2019-04-30T04:35:56.254Z,98.93
2019-04-30T04:36:56.443Z,98.79
2019-04-30T04:37:56.621Z,97.83
2019-04-30T04:38:56.812Z,97.64
2019-04-30T04:39:59.329Z,96.69
2019-04-30T04:41:02.615Z,95.94
2019-04-30T04:41:59.785Z,95.32
2019-04-30T04:43:00.072Z,94.74
2019-04-30T04:44:00.130Z,93.94
2019-04-30T04:44:59.571Z,93.89
2019-04-30T04:45:59.475Z,94.46
2019-04-30T04:47:00.151Z,93.79
2019-04-30T04:48:00.017Z,93.60
2019-04-30T04:48:59.626Z,93.46
2019-04-30T04:50:00.657Z,93.18
2019-04-30T04:51:00.057Z,93.18
2019-04-30T04:51:59.351Z,93.41
2019-04-30T04:52:59.609Z,93.41
2019-04-30T04:54:00.111Z,93.27
2019-04-30T04:55:00.546Z,93.27
2019-04-30T04:56:00.123Z,94.17
2019-04-30T04:57:14.000Z,93.79
2019-04-30T04:58:00.357Z,92.55
2019-04-30T04:59:00.545Z,93.55
2019-04-30T05:00:07.110Z,91.64
2019-04-30T05:01:00.921Z,92.03
2019-04-30T05:02:01.111Z,92.17
2019-04-30T05:03:01.346Z,92.07
2019-04-30T05:04:01.480Z,91.21
2019-04-30T05:05:01.670Z,91.07
2019-04-30T05:06:02.694Z,89.69
2019-04-30T05:07:02.051Z,90.11
2019-04-30T05:08:02.229Z,90.35
2019-04-30T05:09:02.442Z,88.82
2019-04-30T05:10:02.604Z,88.34
2019-04-30T05:11:02.804Z,87.54
2019-04-30T05:12:02.985Z,88.73
2019-04-30T05:13:03.185Z,88.45
2019-04-30T05:14:03.358Z,90.11
2019-04-30T05:15:03.562Z,89.16
2019-04-30T05:16:03.764Z,88.82
2019-04-30T05:17:03.941Z,88.20
2019-04-30T05:18:04.141Z,86.57
2019-04-30T05:19:04.328Z,86.49
2019-04-30T05:20:04.515Z,88.06
2019-04-30T05:21:04.716Z,88.68
2019-04-30T05:22:04.894Z,87.82
2019-04-30T05:23:05.085Z,86.57
2019-04-30T05:24:05.266Z,86.24
2019-04-30T05:25:05.465Z,86.57
2019-04-30T05:26:05.665Z,86.19
2019-04-30T05:27:05.859Z,85.33
2019-04-30T05:28:06.069Z,85.66
2019-04-30T05:29:06.280Z,84.99
2019-04-30T05:30:06.470Z,86.00
2019-04-30T05:31:08.671Z,85.58
2019-04-30T05:32:06.854Z,85.38
2019-04-30T05:33:08.719Z,83.94
2019-04-30T05:34:10.071Z,82.40
2019-04-30T05:35:09.381Z,80.73
2019-04-30T05:36:09.249Z,81.73
2019-04-30T05:37:09.038Z,81.13
2019-04-30T05:38:09.285Z,83.31
2019-04-30T05:39:08.691Z,81.88
2019-04-30T05:40:09.217Z,79.91
2019-04-30T05:41:09.345Z,80.82
2019-04-30T05:42:08.872Z,80.92
2019-04-30T05:43:11.231Z,80.10
2019-04-30T05:44:09.255Z,79.05
2019-04-30T05:45:09.605Z,76.98
2019-04-30T05:46:11.038Z,79.96
2019-04-30T05:47:09.787Z,81.05
2019-04-30T05:48:09.979Z,80.38
2019-04-30T05:49:10.182Z,78.13
2019-04-30T05:50:10.381Z,75.48
2019-04-30T05:51:10.576Z,75.95
2019-04-30T05:52:11.647Z,77.23
2019-04-30T05:53:10.974Z,77.17
2019-04-30T05:54:11.168Z,75.87
2019-04-30T05:55:11.367Z,74.08
2019-04-30T05:56:11.562Z,73.74
2019-04-30T05:57:11.772Z,72.30
2019-04-30T05:58:11.966Z,71.21
2019-04-30T05:59:12.174Z,71.50
2019-04-30T06:00:12.379Z,70.44
2019-04-30T06:01:12.577Z,72.23
2019-04-30T06:02:12.770Z,73.86
2019-04-30T06:03:24.950Z,71.31
2019-04-30T06:04:13.153Z,71.69
2019-04-30T06:05:13.355Z,71.69
2019-04-30T06:06:13.550Z,71.34
2019-04-30T06:07:13.746Z,70.60
2019-04-30T06:08:13.938Z,72.07
2019-04-30T06:09:22.567Z,70.29
2019-04-30T06:10:14.329Z,69.29
2019-04-30T06:11:14.525Z,69.54
2019-04-30T06:12:14.720Z,68.40
2019-04-30T06:13:14.922Z,67.16
2019-04-30T06:14:15.120Z,66.09
2019-04-30T06:15:15.314Z,68.62
2019-04-30T06:16:15.518Z,68.37
2019-04-30T06:17:15.717Z,67.22
2019-04-30T06:18:15.914Z,66.26
2019-04-30T06:19:16.110Z,65.97
2019-04-30T06:20:19.184Z,66.06
2019-04-30T06:21:16.501Z,66.45
2019-04-30T06:22:16.697Z,66.16
2019-04-30T06:23:16.905Z,66.86
2019-04-30T06:24:18.767Z,65.05
2019-04-30T06:25:30.566Z,63.35
2019-04-30T06:26:20.465Z,63.22
2019-04-30T06:27:19.147Z,63.26
2019-04-30T06:28:19.505Z,64.95
2019-04-30T06:29:18.981Z,65.71
2019-04-30T06:30:19.815Z,66.80
2019-04-30T06:31:31.260Z,66.29
2019-04-30T06:32:18.842Z,63.96
2019-04-30T06:33:19.319Z,61.68
2019-04-30T06:34:19.785Z,61.05
2019-04-30T06:35:19.479Z,61.49
2019-04-30T06:36:19.503Z,62.36
2019-04-30T06:37:19.680Z,62.87
2019-04-30T06:38:19.875Z,61.72
2019-04-30T06:39:20.074Z,59.76
2019-04-30T06:40:20.274Z,58.13
2019-04-30T06:41:20.476Z,57.93
2019-04-30T06:42:20.680Z,58.61
2019-04-30T06:43:20.874Z,60.27
2019-04-30T06:44:21.074Z,60.33
2019-04-30T06:45:21.273Z,56.74
2019-04-30T06:46:21.470Z,56.45
2019-04-30T06:47:32.333Z,56.88
2019-04-30T06:48:21.871Z,57.88
2019-04-30T06:49:22.070Z,59.70
2019-04-30T06:50:22.272Z,60.88
2019-04-30T06:51:22.464Z,59.48
2019-04-30T06:52:23.697Z,58.52
2019-04-30T06:53:22.862Z,60.67
2019-04-30T06:54:23.061Z,63.35
2019-04-30T06:55:23.282Z,63.45
2019-04-30T06:56:23.454Z,63.67
2019-04-30T06:57:23.654Z,61.88
2019-04-30T06:58:23.844Z,62.07
2019-04-30T06:59:24.042Z,61.72
2019-04-30T07:00:32.914Z,59.67
2019-04-30T07:01:24.442Z,59.48
2019-04-30T07:02:24.642Z,58.30
2019-04-30T07:03:24.842Z,60.41
2019-04-30T07:04:25.041Z,60.38
2019-04-30T07:05:25.236Z,60.44
2019-04-30T07:06:29.848Z,60.96
2019-04-30T07:07:36.279Z,59.55
2019-04-30T07:08:36.297Z,60.57
2019-04-30T07:09:26.712Z,60.15
2019-04-30T07:10:26.233Z,58.02
2019-04-30T07:11:26.441Z,60.50
2019-04-30T07:12:29.876Z,59.16
2019-04-30T07:13:26.849Z,58.23
2019-04-30T07:14:27.055Z,58.55
2019-04-30T07:15:27.253Z,59.38
2019-04-30T07:16:29.666Z,59.67
2019-04-30T07:17:29.222Z,59.64
2019-04-30T07:18:28.878Z,60.96
2019-04-30T07:19:34.609Z,59.90
2019-04-30T07:20:29.158Z,60.35
2019-04-30T07:21:31.199Z,59.06
2019-04-30T07:22:39.492Z,57.78
2019-04-30T07:23:28.849Z,58.39
2019-04-30T07:24:29.594Z,58.91
2019-04-30T07:25:29.420Z,57.95
2019-04-30T07:26:29.463Z,58.55
2019-04-30T07:27:31.929Z,56.71
2019-04-30T07:28:43.263Z,55.56
2019-04-30T07:29:30.060Z,54.35
2019-04-30T07:30:30.927Z,54.35
2019-04-30T07:31:30.473Z,53.85
2019-04-30T07:32:30.688Z,54.13
2019-04-30T07:33:30.875Z,54.96
2019-04-30T07:34:36.567Z,53.09
2019-04-30T07:35:31.277Z,52.77
2019-04-30T07:36:45.334Z,53.53
2019-04-30T07:37:31.675Z,56.67
2019-04-30T07:38:35.841Z,60.28
2019-04-30T07:39:33.508Z,56.73
2019-04-30T07:40:32.283Z,55.44
2019-04-30T07:41:32.489Z,55.37
2019-04-30T07:42:36.980Z,52.38
2019-04-30T07:43:32.886Z,53.42
2019-04-30T07:44:36.519Z,55.08
2019-04-30T07:45:33.333Z,52.70
2019-04-30T07:46:35.370Z,51.67
2019-04-30T07:47:33.695Z,51.38
2019-04-30T07:48:33.894Z,52.70
2019-04-30T07:49:47.003Z,51.69
2019-04-30T07:50:34.832Z,52.89
2019-04-30T07:51:37.867Z,54.25
2019-04-30T07:52:35.519Z,54.45
2019-04-30T07:53:34.924Z,53.92
2019-04-30T07:54:35.126Z,52.58
2019-04-30T07:55:35.324Z,53.09
2019-04-30T07:56:40.867Z,51.71
2019-04-30T07:57:35.724Z,55.55
2019-04-30T07:58:35.933Z,54.96
2019-04-30T07:59:36.133Z,54.86
2019-04-30T08:00:36.334Z,54.28
2019-04-30T08:01:36.537Z,54.77
2019-04-30T08:02:40.877Z,54.89
2019-04-30T08:03:39.232Z,53.52
2019-04-30T08:04:37.141Z,53.94
2019-04-30T08:05:40.078Z,53.54
2019-04-30T08:06:39.533Z,52.43
2019-04-30T08:07:39.164Z,52.61
2019-04-30T08:08:40.548Z,50.85
2019-04-30T08:09:41.540Z,52.48
2019-04-30T08:10:39.382Z,53.97
2019-04-30T08:11:41.910Z,55.27
2019-04-30T08:12:42.727Z,54.08
2019-04-30T08:13:40.756Z,51.17
2019-04-30T08:14:39.184Z,51.74
2019-04-30T08:15:42.148Z,49.99
2019-04-30T08:16:39.589Z,49.33
2019-04-30T08:17:39.794Z,49.55
2019-04-30T08:18:39.988Z,50.08
2019-04-30T08:19:41.136Z,51.54
2019-04-30T08:20:40.395Z,52.48
2019-04-30T08:21:40.598Z,52.99
2019-04-30T08:22:41.098Z,52.42
2019-04-30T08:23:40.999Z,53.69
2019-04-30T08:24:41.196Z,53.11
2019-04-30T08:25:41.401Z,51.31
2019-04-30T08:26:41.601Z,49.00
2019-04-30T08:27:41.808Z,48.79
2019-04-30T08:28:42.020Z,48.74
2019-04-30T08:29:42.219Z,49.65
2019-04-30T08:30:42.421Z,49.02
2019-04-30T08:31:42.621Z,50.18
2019-04-30T08:32:42.819Z,49.43
2019-04-30T08:33:43.022Z,48.81
2019-04-30T08:34:43.225Z,47.39
2019-04-30T08:35:43.428Z,47.99
2019-04-30T08:36:43.636Z,47.97
2019-04-30T08:37:43.840Z,49.91
2019-04-30T08:38:44.037Z,49.32
2019-04-30T08:39:44.241Z,46.91
2019-04-30T08:40:55.881Z,49.24
2019-04-30T08:41:44.645Z,48.16
2019-04-30T08:42:44.845Z,47.87
2019-04-30T08:43:45.049Z,47.41
2019-04-30T08:44:45.248Z,45.58
2019-04-30T08:45:45.453Z,45.15
2019-04-30T08:46:45.658Z,45.90
2019-04-30T08:47:45.858Z,46.64
2019-04-30T08:48:50.816Z,47.36
2019-04-30T08:49:46.403Z,48.08
2019-04-30T08:50:46.569Z,46.86
2019-04-30T08:51:48.846Z,46.86
2019-04-30T08:52:46.871Z,46.36
2019-04-30T08:53:48.661Z,47.92
2019-04-30T08:54:49.436Z,47.24
2019-04-30T08:55:49.207Z,48.07
2019-04-30T08:56:47.696Z,47.46
2019-04-30T08:57:49.856Z,49.69
2019-04-30T08:58:49.055Z,48.69
2019-04-30T08:59:49.481Z,47.89
2019-04-30T09:00:48.654Z,47.99
2019-04-30T09:01:48.798Z,47.20
2019-04-30T09:02:49.290Z,47.77
2019-04-30T09:03:51.214Z,47.03
2019-04-30T09:04:49.495Z,47.61
2019-04-30T09:05:49.982Z,45.68
2019-04-30T09:06:49.782Z,45.51
2019-04-30T09:07:49.902Z,47.13
2019-04-30T09:08:50.103Z,46.28
2019-04-30T09:09:50.302Z,45.51
2019-04-30T09:10:50.508Z,43.88
2019-04-30T09:11:55.416Z,44.94
2019-04-30T09:12:51.945Z,47.20
2019-04-30T09:13:51.123Z,49.65
2019-04-30T09:14:51.322Z,48.06
2019-04-30T09:15:51.524Z,44.48
2019-04-30T09:16:51.761Z,42.72
2019-04-30T09:18:00.757Z,44.31
2019-04-30T09:18:52.128Z,42.74
2019-04-30T09:19:52.331Z,44.05
2019-04-30T09:20:52.525Z,47.49
2019-04-30T09:21:52.733Z,45.53
2019-04-30T09:22:52.931Z,44.49
2019-04-30T09:23:53.132Z,45.65
2019-04-30T09:24:53.335Z,46.19
2019-04-30T09:25:53.535Z,45.92
2019-04-30T09:26:53.741Z,45.10
2019-04-30T09:27:53.942Z,41.99
2019-04-30T09:28:54.142Z,42.11
2019-04-30T09:29:54.345Z,44.06
2019-04-30T09:30:54.549Z,43.77
2019-04-30T09:31:54.747Z,43.45
2019-04-30T09:32:54.945Z,44.87
2019-04-30T09:33:57.876Z,46.16
2019-04-30T09:34:55.348Z,47.36
2019-04-30T09:35:55.555Z,45.10
2019-04-30T09:36:56.041Z,43.99
2019-04-30T09:38:01.147Z,44.45
2019-04-30T09:38:56.194Z,43.27
2019-04-30T09:39:56.395Z,43.00
2019-04-30T09:40:56.601Z,42.90
2019-04-30T09:41:56.799Z,40.53
2019-04-30T09:42:58.552Z,42.37
2019-04-30T09:43:57.204Z,43.70
2019-04-30T09:44:59.637Z,46.86
2019-04-30T09:45:59.289Z,46.91
2019-04-30T09:46:58.832Z,45.73
2019-04-30T09:47:59.259Z,49.05
2019-04-30T09:48:59.728Z,45.70
2019-04-30T09:49:59.680Z,44.07
2019-04-30T09:51:00.823Z,46.01
2019-04-30T09:51:59.498Z,42.50
2019-04-30T09:53:00.221Z,45.70
2019-04-30T09:54:02.245Z,45.18
2019-04-30T09:54:59.869Z,47.63
2019-04-30T09:55:59.752Z,44.96
2019-04-30T09:56:59.816Z,42.77
2019-04-30T09:58:00.019Z,45.37
2019-04-30T09:59:00.217Z,47.22
2019-04-30T10:00:00.646Z,46.33
2019-04-30T10:01:00.626Z,45.08
2019-04-30T10:02:00.821Z,46.16
2019-04-30T10:03:01.251Z,44.12
2019-04-30T10:04:01.625Z,46.09
2019-04-30T10:05:01.839Z,46.77
2019-04-30T10:06:01.621Z,47.27
2019-04-30T10:07:01.823Z,45.12
2019-04-30T10:08:02.020Z,44.90
2019-04-30T10:09:02.225Z,45.14
2019-04-30T10:10:02.429Z,44.22
2019-04-30T10:11:02.624Z,42.00
2019-04-30T10:12:02.825Z,41.13
2019-04-30T10:13:03.033Z,43.00
2019-04-30T10:14:03.232Z,42.93
2019-04-30T10:15:03.435Z,45.39
2019-04-30T10:16:03.635Z,42.67
2019-04-30T10:17:03.834Z,42.65
2019-04-30T10:18:04.054Z,46.88
2019-04-30T10:19:04.255Z,45.17
2019-04-30T10:20:04.450Z,44.28
2019-04-30T10:21:04.653Z,43.13
2019-04-30T10:22:04.858Z,47.92
2019-04-30T10:23:05.065Z,45.70
2019-04-30T10:24:14.756Z,49.34
2019-04-30T10:25:05.467Z,48.25
2019-04-30T10:26:05.676Z,42.58
2019-04-30T10:27:10.502Z,44.24
2019-04-30T10:28:06.078Z,42.05
2019-04-30T10:29:06.295Z,45.24
2019-04-30T10:30:06.465Z,43.32
2019-04-30T10:31:06.670Z,44.57
2019-04-30T10:32:08.717Z,47.87
2019-04-30T10:33:07.068Z,48.66
2019-04-30T10:34:07.266Z,47.92
2019-04-30T10:35:07.462Z,44.02
2019-04-30T10:36:09.353Z,45.34
2019-04-30T10:37:08.997Z,44.56
2019-04-30T10:38:09.859Z,42.79
2019-04-30T10:39:08.292Z,44.83
2019-04-30T10:40:10.281Z,43.17
2019-04-30T10:41:08.938Z,44.13
2019-04-30T10:42:08.883Z,47.05
2019-04-30T10:43:09.218Z,47.70
2019-04-30T10:44:09.294Z,47.05
2019-04-30T10:45:09.957Z,48.13
2019-04-30T10:46:09.869Z,42.73
2019-04-30T10:47:09.892Z,42.90
2019-04-30T10:48:10.096Z,44.73
2019-04-30T10:49:10.313Z,44.64
2019-04-30T10:50:10.493Z,43.94
2019-04-30T10:51:10.701Z,47.72
2019-04-30T10:52:10.906Z,45.89
2019-04-30T10:53:12.508Z,45.60
2019-04-30T10:54:23.231Z,45.75
2019-04-30T10:55:11.519Z,46.69
2019-04-30T10:56:11.810Z,49.02
2019-04-30T10:57:11.918Z,47.92
2019-04-30T10:58:12.125Z,49.87
2019-04-30T10:59:12.327Z,49.72
2019-04-30T11:00:12.530Z,49.65
2019-04-30T11:01:12.732Z,51.48
2019-04-30T11:02:12.924Z,53.62
2019-04-30T11:03:20.063Z,52.37
2019-04-30T11:04:13.335Z,51.96
2019-04-30T11:05:13.532Z,51.98
2019-04-30T11:06:13.731Z,53.70
2019-04-30T11:07:13.933Z,49.96
2019-04-30T11:08:14.125Z,51.18
2019-04-30T11:09:14.327Z,51.32
2019-04-30T11:10:14.518Z,51.64
2019-04-30T11:11:14.714Z,53.68
2019-04-30T11:12:14.910Z,52.68
2019-04-30T11:13:15.109Z,52.32
2019-04-30T11:14:15.311Z,52.89
2019-04-30T11:15:15.505Z,52.70
2019-04-30T11:16:15.790Z,51.23
2019-04-30T11:17:16.062Z,50.58
2019-04-30T11:18:16.307Z,52.72
2019-04-30T11:19:16.411Z,53.46
2019-04-30T11:20:16.659Z,55.38
2019-04-30T11:21:16.895Z,53.20
2019-04-30T11:22:17.077Z,53.13
2019-04-30T11:23:17.259Z,52.39
2019-04-30T11:24:19.297Z,52.39
2019-04-30T11:25:19.607Z,53.06
2019-04-30T11:26:18.363Z,51.72
2019-04-30T11:27:20.271Z,50.80
2019-04-30T11:28:18.497Z,52.81
2019-04-30T11:29:18.348Z,52.58
2019-04-30T11:30:23.598Z,49.62
2019-04-30T11:31:18.924Z,49.67
2019-04-30T11:32:19.009Z,49.36
2019-04-30T11:33:19.166Z,48.81
2019-04-30T11:34:19.218Z,50.05
2019-04-30T11:35:20.753Z,50.73
2019-04-30T11:36:19.621Z,52.14
2019-04-30T11:37:19.804Z,53.42
2019-04-30T11:38:20.522Z,51.21
2019-04-30T11:39:20.190Z,51.33
2019-04-30T11:40:31.231Z,49.10
2019-04-30T11:41:30.053Z,49.38
2019-04-30T11:42:20.807Z,52.43
2019-04-30T11:43:20.988Z,51.67
2019-04-30T11:44:30.326Z,53.13
2019-04-30T11:45:21.382Z,52.08
2019-04-30T11:46:21.573Z,49.17
2019-04-30T11:47:21.775Z,49.84
2019-04-30T11:48:21.968Z,50.90
2019-04-30T11:49:22.166Z,48.38
2019-04-30T11:50:22.366Z,48.74
2019-04-30T11:51:22.558Z,49.12
2019-04-30T11:52:22.750Z,51.45
2019-04-30T11:53:27.847Z,53.56
2019-04-30T11:54:23.134Z,56.46
2019-04-30T11:55:23.334Z,57.14
2019-04-30T11:56:23.530Z,54.67
2019-04-30T11:57:23.733Z,51.95
2019-04-30T11:58:23.935Z,52.62
2019-04-30T11:59:24.127Z,56.88
2019-04-30T12:00:24.317Z,50.03
2019-04-30T12:01:24.524Z,52.72
2019-04-30T12:02:24.725Z,56.01
2019-04-30T12:03:24.919Z,53.25
2019-04-30T12:04:25.119Z,52.94
2019-04-30T12:05:25.311Z,51.31
2019-04-30T12:06:25.506Z,53.23
2019-04-30T12:07:25.699Z,51.72
2019-04-30T12:08:26.565Z,52.68
2019-04-30T12:09:26.078Z,51.23
2019-04-30T12:10:26.270Z,53.47
2019-04-30T12:11:26.461Z,53.38
2019-04-30T12:12:26.662Z,53.66
2019-04-30T12:13:26.854Z,51.43
2019-04-30T12:14:27.052Z,52.58
2019-04-30T12:15:29.025Z,54.60
2019-04-30T12:16:28.557Z,52.97
2019-04-30T12:17:27.638Z,52.58
2019-04-30T12:18:27.838Z,53.45
2019-04-30T12:19:28.676Z,51.81
2019-04-30T12:20:28.234Z,51.02
2019-04-30T12:21:28.422Z,52.68
2019-04-30T12:22:29.652Z,54.43
2019-04-30T12:23:28.788Z,55.40
2019-04-30T12:24:30.421Z,55.40
2019-04-30T12:25:30.415Z,54.43
2019-04-30T12:26:29.386Z,53.47
2019-04-30T12:27:29.583Z,52.12
2019-04-30T12:28:29.831Z,53.09
2019-04-30T12:29:29.969Z,50.76
2019-04-30T12:30:30.158Z,51.53
2019-04-30T12:31:30.349Z,50.78
2019-04-30T12:32:30.542Z,52.70
2019-04-30T12:33:30.740Z,49.53
2019-04-30T12:34:30.938Z,50.08
2019-04-30T12:35:31.127Z,52.97
2019-04-30T12:36:31.316Z,55.11
2019-04-30T12:37:31.507Z,53.96
2019-04-30T12:38:31.699Z,54.72
2019-04-30T12:39:31.891Z,54.79
2019-04-30T12:40:32.463Z,54.12
2019-04-30T12:41:32.287Z,55.66
2019-04-30T12:42:32.476Z,53.35
2019-04-30T12:43:32.673Z,55.98
2019-04-30T12:44:32.868Z,54.79
2019-04-30T12:45:33.060Z,56.33
2019-04-30T12:46:33.251Z,56.65
2019-04-30T12:47:33.438Z,54.79
2019-04-30T12:48:33.633Z,55.37
2019-04-30T12:49:33.826Z,58.09
2019-04-30T12:50:34.021Z,57.29
2019-04-30T12:51:45.212Z,54.60
2019-04-30T12:52:34.403Z,54.22
2019-04-30T12:53:34.592Z,55.27
2019-04-30T12:54:34.786Z,57.32